sensor_id;sensor_type;location;lat;lon;timestamp;P1;durP1;ratioP1;P2;durP2;ratioP2
77402;SDS011;66472;53.046;8.656;2023-03-20T00:01:47;35.13;;;23.10;;
77402;SDS011;66472;53.046;8.656;2023-03-20T00:06:43;35.00;;;22.63;;
77402;SDS011;66472;53.046;8.656;2023-03-20T00:11:48;35.97;;;24.13;;
77402;SDS011;66472;53.046;8.656;2023-03-20T00:16:45;39.50;;;25.03;;
77402;SDS011;66472;53.046;8.656;2023-03-20T00:21:40;40.67;;;25.23;;
77402;SDS011;66472;53.046;8.656;2023-03-20T00:26:35;36.40;;;26.58;;
77402;SDS011;66472;53.046;8.656;2023-03-20T00:31:33;39.80;;;28.17;;
77402;SDS011;66472;53.046;8.656;2023-03-20T00:36:29;33.90;;;26.63;;
77402;SDS011;66472;53.046;8.656;2023-03-20T00:41:25;41.53;;;27.10;;
77402;SDS011;66472;53.046;8.656;2023-03-20T00:46:20;39.03;;;25.33;;
77402;SDS011;66472;53.046;8.656;2023-03-20T00:51:16;33.20;;;25.60;;
77402;SDS011;66472;53.046;8.656;2023-03-20T01:01:45;30.00;;;21.77;;
77402;SDS011;66472;53.046;8.656;2023-03-20T01:06:43;20.33;;;17.23;;
77402;SDS011;66472;53.046;8.656;2023-03-20T01:11:39;21.73;;;17.97;;
77402;SDS011;66472;53.046;8.656;2023-03-20T01:16:37;24.27;;;20.03;;
77402;SDS011;66472;53.046;8.656;2023-03-20T01:21:32;23.50;;;17.73;;
77402;SDS011;66472;53.046;8.656;2023-03-20T01:26:31;18.97;;;16.60;;
77402;SDS011;66472;53.046;8.656;2023-03-20T01:31:28;17.10;;;15.40;;
77402;SDS011;66472;53.046;8.656;2023-03-20T01:36:23;16.07;;;13.93;;
77402;SDS011;66472;53.046;8.656;2023-03-20T01:41:19;16.17;;;13.93;;
77402;SDS011;66472;53.046;8.656;2023-03-20T01:51:22;16.17;;;14.47;;
77402;SDS011;66472;53.046;8.656;2023-03-20T01:56:19;16.40;;;15.00;;
77402;SDS011;66472;53.046;8.656;2023-03-20T02:01:17;17.43;;;15.83;;
77402;SDS011;66472;53.046;8.656;2023-03-20T02:06:14;18.80;;;17.13;;
77402;SDS011;66472;53.046;8.656;2023-03-20T02:11:30;19.80;;;17.90;;
77402;SDS011;66472;53.046;8.656;2023-03-20T02:16:26;18.40;;;16.70;;
77402;SDS011;66472;53.046;8.656;2023-03-20T02:21:39;20.33;;;18.63;;
77402;SDS011;66472;53.046;8.656;2023-03-20T02:26:45;19.40;;;17.90;;
77402;SDS011;66472;53.046;8.656;2023-03-20T02:47:02;12.43;;;11.33;;
77402;SDS011;66472;53.046;8.656;2023-03-20T02:52:02;11.67;;;10.73;;
77402;SDS011;66472;53.046;8.656;2023-03-20T02:57:03;12.03;;;10.93;;
77402;SDS011;66472;53.046;8.656;2023-03-20T03:02:08;11.60;;;10.60;;
77402;SDS011;66472;53.046;8.656;2023-03-20T03:07:09;11.47;;;10.47;;
77402;SDS011;66472;53.046;8.656;2023-03-20T03:12:09;10.97;;;9.97;;
77402;SDS011;66472;53.046;8.656;2023-03-20T03:17:06;11.27;;;10.27;;
77402;SDS011;66472;53.046;8.656;2023-03-20T03:22:03;10.93;;;9.93;;
77402;SDS011;66472;53.046;8.656;2023-03-20T03:27:00;11.13;;;10.03;;
77402;SDS011;66472;53.046;8.656;2023-03-20T03:31:57;10.97;;;9.97;;
77402;SDS011;66472;53.046;8.656;2023-03-20T03:37:01;11.45;;;10.35;;
77402;SDS011;66472;53.046;8.656;2023-03-20T03:42:02;11.90;;;10.90;;
77402;SDS011;66472;53.046;8.656;2023-03-20T03:47:06;12.57;;;11.37;;
77402;SDS011;66472;53.046;8.656;2023-03-20T03:52:05;12.90;;;11.80;;
77402;SDS011;66472;53.046;8.656;2023-03-20T03:57:03;15.23;;;13.50;;
77402;SDS011;66472;53.046;8.656;2023-03-20T04:02:00;13.03;;;11.73;;
77402;SDS011;66472;53.046;8.656;2023-03-20T04:06:57;15.80;;;14.30;;
77402;SDS011;66472;53.046;8.656;2023-03-20T04:11:53;15.13;;;13.73;;
77402;SDS011;66472;53.046;8.656;2023-03-20T04:16:48;15.83;;;14.33;;
77402;SDS011;66472;53.046;8.656;2023-03-20T04:21:44;16.97;;;15.40;;
77402;SDS011;66472;53.046;8.656;2023-03-20T04:26:40;16.43;;;14.87;;
77402;SDS011;66472;53.046;8.656;2023-03-20T04:31:35;17.67;;;16.07;;
77402;SDS011;66472;53.046;8.656;2023-03-20T04:36:51;16.67;;;15.17;;
77402;SDS011;66472;53.046;8.656;2023-03-20T04:41:48;17.37;;;15.80;;
77402;SDS011;66472;53.046;8.656;2023-03-20T04:46:43;18.60;;;16.77;;
77402;SDS011;66472;53.046;8.656;2023-03-20T04:51:44;18.53;;;16.70;;
77402;SDS011;66472;53.046;8.656;2023-03-20T04:56:42;17.70;;;15.67;;
77402;SDS011;66472;53.046;8.656;2023-03-20T05:01:42;19.80;;;17.87;;
77402;SDS011;66472;53.046;8.656;2023-03-20T05:06:38;19.50;;;17.60;;
77402;SDS011;66472;53.046;8.656;2023-03-20T05:11:33;20.87;;;18.87;;
77402;SDS011;66472;53.046;8.656;2023-03-20T05:16:29;21.70;;;19.80;;
77402;SDS011;66472;53.046;8.656;2023-03-20T05:21:38;21.73;;;19.93;;
77402;SDS011;66472;53.046;8.656;2023-03-20T05:26:54;21.40;;;19.53;;
77402;SDS011;66472;53.046;8.656;2023-03-20T05:32:14;21.10;;;19.07;;
77402;SDS011;66472;53.046;8.656;2023-03-20T05:37:23;25.27;;;19.83;;
77402;SDS011;66472;53.046;8.656;2023-03-20T05:42:31;21.57;;;19.53;;
77402;SDS011;66472;53.046;8.656;2023-03-20T05:47:29;22.53;;;20.50;;
77402;SDS011;66472;53.046;8.656;2023-03-20T05:52:45;21.53;;;19.67;;
77402;SDS011;66472;53.046;8.656;2023-03-20T05:58:04;21.47;;;19.60;;
77402;SDS011;66472;53.046;8.656;2023-03-20T06:03:19;18.93;;;17.03;;
77402;SDS011;66472;53.046;8.656;2023-03-20T06:08:31;17.30;;;15.70;;
77402;SDS011;66472;53.046;8.656;2023-03-20T06:13:28;17.13;;;15.10;;
77402;SDS011;66472;53.046;8.656;2023-03-20T06:18:23;15.97;;;14.47;;
77402;SDS011;66472;53.046;8.656;2023-03-20T06:23:22;14.13;;;12.77;;
77402;SDS011;66472;53.046;8.656;2023-03-20T06:28:17;14.27;;;11.40;;
77402;SDS011;66472;53.046;8.656;2023-03-20T06:33:17;14.17;;;12.77;;
77402;SDS011;66472;53.046;8.656;2023-03-20T06:38:32;14.00;;;11.77;;
77402;SDS011;66472;53.046;8.656;2023-03-20T06:43:33;12.77;;;11.47;;
77402;SDS011;66472;53.046;8.656;2023-03-20T06:48:28;15.97;;;13.37;;
77402;SDS011;66472;53.046;8.656;2023-03-20T06:53:24;13.77;;;12.17;;
77402;SDS011;66472;53.046;8.656;2023-03-20T06:58:26;13.53;;;12.03;;
77402;SDS011;66472;53.046;8.656;2023-03-20T07:03:22;14.17;;;10.97;;
77402;SDS011;66472;53.046;8.656;2023-03-20T07:08:18;14.53;;;11.30;;
77402;SDS011;66472;53.046;8.656;2023-03-20T07:13:13;14.37;;;12.13;;
77402;SDS011;66472;53.046;8.656;2023-03-20T07:18:10;13.77;;;12.47;;
77402;SDS011;66472;53.046;8.656;2023-03-20T07:23:05;14.00;;;11.93;;
77402;SDS011;66472;53.046;8.656;2023-03-20T07:28:03;11.90;;;10.87;;
77402;SDS011;66472;53.046;8.656;2023-03-20T07:33:00;11.27;;;10.17;;
77402;SDS011;66472;53.046;8.656;2023-03-20T07:37:59;17.67;;;11.63;;
77402;SDS011;66472;53.046;8.656;2023-03-20T07:42:55;18.93;;;11.63;;
77402;SDS011;66472;53.046;8.656;2023-03-20T07:48:17;14.37;;;10.17;;
77402;SDS011;66472;53.046;8.656;2023-03-20T07:53:13;14.83;;;10.77;;
77402;SDS011;66472;53.046;8.656;2023-03-20T07:58:08;14.45;;;10.70;;
77402;SDS011;66472;53.046;8.656;2023-03-20T08:03:03;19.65;;;12.20;;
77402;SDS011;66472;53.046;8.656;2023-03-20T08:07:58;13.80;;;9.37;;
77402;SDS011;66472;53.046;8.656;2023-03-20T08:12:54;16.30;;;9.67;;
77402;SDS011;66472;53.046;8.656;2023-03-20T08:17:50;16.37;;;11.17;;
77402;SDS011;66472;53.046;8.656;2023-03-20T08:22:45;9.47;;;8.47;;
77402;SDS011;66472;53.046;8.656;2023-03-20T08:27:41;11.63;;;10.43;;
77402;SDS011;66472;53.046;8.656;2023-03-20T08:32:36;11.47;;;9.97;;
77402;SDS011;66472;53.046;8.656;2023-03-20T08:37:33;11.57;;;10.37;;
77402;SDS011;66472;53.046;8.656;2023-03-20T08:42:28;10.37;;;9.37;;
77402;SDS011;66472;53.046;8.656;2023-03-20T08:47:23;17.00;;;10.67;;
77402;SDS011;66472;53.046;8.656;2023-03-20T08:52:18;11.60;;;9.60;;
77402;SDS011;66472;53.046;8.656;2023-03-20T08:57:14;9.03;;;8.13;;
77402;SDS011;66472;53.046;8.656;2023-03-20T09:02:10;9.17;;;7.93;;
77402;SDS011;66472;53.046;8.656;2023-03-20T09:07:06;12.77;;;8.20;;
77402;SDS011;66472;53.046;8.656;2023-03-20T09:12:01;11.43;;;8.90;;
77402;SDS011;66472;53.046;8.656;2023-03-20T09:16:56;10.80;;;8.43;;
77402;SDS011;66472;53.046;8.656;2023-03-20T09:21:52;8.73;;;7.83;;
77402;SDS011;66472;53.046;8.656;2023-03-20T09:26:47;12.43;;;8.30;;
77402;SDS011;66472;53.046;8.656;2023-03-20T09:31:43;8.60;;;7.07;;
77402;SDS011;66472;53.046;8.656;2023-03-20T09:36:38;10.37;;;7.73;;
77402;SDS011;66472;53.046;8.656;2023-03-20T09:41:33;7.97;;;7.20;;
77402;SDS011;66472;53.046;8.656;2023-03-20T09:51:41;9.10;;;7.50;;
77402;SDS011;66472;53.046;8.656;2023-03-20T09:56:38;8.47;;;7.27;;
77402;SDS011;66472;53.046;8.656;2023-03-20T10:01:55;8.37;;;6.67;;
77402;SDS011;66472;53.046;8.656;2023-03-20T10:06:48;8.43;;;6.63;;
77402;SDS011;66472;53.046;8.656;2023-03-20T10:21:45;8.43;;;7.13;;
77402;SDS011;66472;53.046;8.656;2023-03-20T10:26:40;8.53;;;6.37;;
77402;SDS011;66472;53.046;8.656;2023-03-20T10:31:47;9.93;;;5.90;;
77402;SDS011;66472;53.046;8.656;2023-03-20T10:42:00;7.70;;;5.33;;
77402;SDS011;66472;53.046;8.656;2023-03-20T10:46:56;10.00;;;5.53;;
77402;SDS011;66472;53.046;8.656;2023-03-20T10:51:54;6.93;;;5.00;;
77402;SDS011;66472;53.046;8.656;2023-03-20T10:56:51;9.30;;;5.00;;
77402;SDS011;66472;53.046;8.656;2023-03-20T11:01:47;8.83;;;6.07;;
77402;SDS011;66472;53.046;8.656;2023-03-20T11:06:53;8.63;;;6.30;;
77402;SDS011;66472;53.046;8.656;2023-03-20T11:11:55;9.80;;;6.00;;
77402;SDS011;66472;53.046;8.656;2023-03-20T11:16:51;9.13;;;6.30;;
77402;SDS011;66472;53.046;8.656;2023-03-20T11:21:51;6.43;;;5.27;;
77402;SDS011;66472;53.046;8.656;2023-03-20T11:26:46;10.43;;;6.23;;
77402;SDS011;66472;53.046;8.656;2023-03-20T11:31:42;8.67;;;5.70;;
77402;SDS011;66472;53.046;8.656;2023-03-20T11:36:37;8.18;;;6.57;;
77402;SDS011;66472;53.046;8.656;2023-03-20T11:41:35;8.60;;;6.33;;
77402;SDS011;66472;53.046;8.656;2023-03-20T11:46:35;7.10;;;6.40;;
77402;SDS011;66472;53.046;8.656;2023-03-20T11:51:30;9.73;;;6.53;;
77402;SDS011;66472;53.046;8.656;2023-03-20T11:56:27;7.93;;;6.10;;
77402;SDS011;66472;53.046;8.656;2023-03-20T12:01:23;7.90;;;6.33;;
77402;SDS011;66472;53.046;8.656;2023-03-20T12:06:19;14.60;;;6.13;;
77402;SDS011;66472;53.046;8.656;2023-03-20T12:11:23;10.77;;;6.30;;
77402;SDS011;66472;53.046;8.656;2023-03-20T12:16:20;9.07;;;6.30;;
77402;SDS011;66472;53.046;8.656;2023-03-20T12:21:23;6.83;;;5.87;;
77402;SDS011;66472;53.046;8.656;2023-03-20T12:26:29;11.10;;;6.43;;
77402;SDS011;66472;53.046;8.656;2023-03-20T12:31:31;7.53;;;6.73;;
77402;SDS011;66472;53.046;8.656;2023-03-20T12:36:33;8.33;;;6.63;;
77402;SDS011;66472;53.046;8.656;2023-03-20T12:46:38;8.37;;;5.93;;
77402;SDS011;66472;53.046;8.656;2023-03-20T12:51:46;11.73;;;6.47;;
77402;SDS011;66472;53.046;8.656;2023-03-20T13:01:54;16.70;;;6.47;;
77402;SDS011;66472;53.046;8.656;2023-03-20T13:06:51;7.17;;;6.23;;
77402;SDS011;66472;53.046;8.656;2023-03-20T13:11:54;14.23;;;6.57;;
77402;SDS011;66472;53.046;8.656;2023-03-20T13:17:04;10.00;;;6.13;;
77402;SDS011;66472;53.046;8.656;2023-03-20T13:22:12;9.47;;;6.07;;
77402;SDS011;66472;53.046;8.656;2023-03-20T13:27:33;8.73;;;5.73;;
77402;SDS011;66472;53.046;8.656;2023-03-20T13:37:39;7.13;;;5.20;;
77402;SDS011;66472;53.046;8.656;2023-03-20T13:42:36;8.80;;;6.30;;
77402;SDS011;66472;53.046;8.656;2023-03-20T13:47:32;7.70;;;6.17;;
77402;SDS011;66472;53.046;8.656;2023-03-20T13:52:37;9.63;;;6.30;;
77402;SDS011;66472;53.046;8.656;2023-03-20T13:57:54;5.80;;;5.23;;
77402;SDS011;66472;53.046;8.656;2023-03-20T14:13:31;8.17;;;5.90;;
77402;SDS011;66472;53.046;8.656;2023-03-20T14:18:26;7.87;;;5.70;;
77402;SDS011;66472;53.046;8.656;2023-03-20T14:23:36;7.37;;;5.70;;
77402;SDS011;66472;53.046;8.656;2023-03-20T14:28:42;6.20;;;5.60;;
77402;SDS011;66472;53.046;8.656;2023-03-20T14:33:42;12.27;;;5.73;;
77402;SDS011;66472;53.046;8.656;2023-03-20T14:38:43;7.83;;;5.67;;
77402;SDS011;66472;53.046;8.656;2023-03-20T14:48:47;9.40;;;6.43;;
77402;SDS011;66472;53.046;8.656;2023-03-20T14:53:54;8.13;;;5.60;;
77402;SDS011;66472;53.046;8.656;2023-03-20T14:58:51;11.70;;;6.40;;
77402;SDS011;66472;53.046;8.656;2023-03-20T15:04:01;8.80;;;6.10;;
77402;SDS011;66472;53.046;8.656;2023-03-20T15:08:59;7.63;;;5.83;;
77402;SDS011;66472;53.046;8.656;2023-03-20T15:13:57;7.97;;;6.23;;
77402;SDS011;66472;53.046;8.656;2023-03-20T15:18:54;7.27;;;6.13;;
77402;SDS011;66472;53.046;8.656;2023-03-20T15:23:49;7.07;;;6.38;;
77402;SDS011;66472;53.046;8.656;2023-03-20T15:28:45;6.53;;;5.83;;
77402;SDS011;66472;53.046;8.656;2023-03-20T15:33:41;8.67;;;6.30;;
77402;SDS011;66472;53.046;8.656;2023-03-20T15:38:36;6.70;;;6.00;;
77402;SDS011;66472;53.046;8.656;2023-03-20T15:43:32;10.00;;;6.90;;
77402;SDS011;66472;53.046;8.656;2023-03-20T15:48:29;9.47;;;6.20;;
77402;SDS011;66472;53.046;8.656;2023-03-20T15:53:31;7.47;;;5.80;;
77402;SDS011;66472;53.046;8.656;2023-03-20T15:58:27;6.97;;;6.27;;
77402;SDS011;66472;53.046;8.656;2023-03-20T16:03:26;8.03;;;5.70;;
77402;SDS011;66472;53.046;8.656;2023-03-20T16:08:24;10.93;;;5.93;;
77402;SDS011;66472;53.046;8.656;2023-03-20T16:13:19;8.90;;;6.33;;
77402;SDS011;66472;53.046;8.656;2023-03-20T16:18:17;8.47;;;6.53;;
77402;SDS011;66472;53.046;8.656;2023-03-20T16:23:13;10.03;;;6.03;;
77402;SDS011;66472;53.046;8.656;2023-03-20T16:28:12;7.60;;;6.43;;
77402;SDS011;66472;53.046;8.656;2023-03-20T16:33:11;8.70;;;6.63;;
77402;SDS011;66472;53.046;8.656;2023-03-20T16:38:15;8.50;;;6.10;;
77402;SDS011;66472;53.046;8.656;2023-03-20T16:53:14;11.47;;;7.00;;
77402;SDS011;66472;53.046;8.656;2023-03-20T16:58:10;9.30;;;7.27;;
77402;SDS011;66472;53.046;8.656;2023-03-20T17:03:12;7.07;;;6.30;;
77402;SDS011;66472;53.046;8.656;2023-03-20T17:08:09;7.60;;;6.03;;
77402;SDS011;66472;53.046;8.656;2023-03-20T17:13:05;7.23;;;6.53;;
77402;SDS011;66472;53.046;8.656;2023-03-20T17:18:01;8.57;;;7.17;;
77402;SDS011;66472;53.046;8.656;2023-03-20T17:22:58;8.63;;;7.77;;
77402;SDS011;66472;53.046;8.656;2023-03-20T17:27:53;9.63;;;8.63;;
77402;SDS011;66472;53.046;8.656;2023-03-20T17:32:48;15.00;;;10.07;;
77402;SDS011;66472;53.046;8.656;2023-03-20T17:37:44;13.88;;;8.38;;
77402;SDS011;66472;53.046;8.656;2023-03-20T17:42:39;9.87;;;9.00;;
77402;SDS011;66472;53.046;8.656;2023-03-20T17:47:37;11.47;;;9.40;;
77402;SDS011;66472;53.046;8.656;2023-03-20T17:52:33;10.70;;;9.70;;
77402;SDS011;66472;53.046;8.656;2023-03-20T17:57:32;14.30;;;12.60;;
77402;SDS011;66472;53.046;8.656;2023-03-20T18:02:28;12.30;;;11.20;;
77402;SDS011;66472;53.046;8.656;2023-03-20T18:07:23;12.63;;;11.53;;
77402;SDS011;66472;53.046;8.656;2023-03-20T18:12:18;16.48;;;14.10;;
77402;SDS011;66472;53.046;8.656;2023-03-20T18:17:16;14.40;;;13.03;;
77402;SDS011;66472;53.046;8.656;2023-03-20T18:22:12;14.80;;;13.63;;
77402;SDS011;66472;53.046;8.656;2023-03-20T18:27:09;15.43;;;14.07;;
77402;SDS011;66472;53.046;8.656;2023-03-20T18:32:06;15.73;;;14.37;;
77402;SDS011;66472;53.046;8.656;2023-03-20T18:37:15;16.93;;;15.53;;
77402;SDS011;66472;53.046;8.656;2023-03-20T18:42:10;16.53;;;15.23;;
77402;SDS011;66472;53.046;8.656;2023-03-20T18:47:18;18.10;;;16.27;;
77402;SDS011;66472;53.046;8.656;2023-03-20T18:52:13;18.03;;;16.17;;
77402;SDS011;66472;53.046;8.656;2023-03-20T18:57:16;18.50;;;16.77;;
77402;SDS011;66472;53.046;8.656;2023-03-20T19:02:23;16.47;;;15.07;;
77402;SDS011;66472;53.046;8.656;2023-03-20T19:07:34;18.47;;;16.57;;
77402;SDS011;66472;53.046;8.656;2023-03-20T19:12:29;15.30;;;14.03;;
77402;SDS011;66472;53.046;8.656;2023-03-20T19:17:24;15.40;;;14.20;;
77402;SDS011;66472;53.046;8.656;2023-03-20T19:22:19;18.07;;;16.37;;
77402;SDS011;66472;53.046;8.656;2023-03-20T19:27:15;17.97;;;16.40;;
77402;SDS011;66472;53.046;8.656;2023-03-20T19:32:11;18.40;;;16.87;;
77402;SDS011;66472;53.046;8.656;2023-03-20T19:37:07;19.40;;;17.80;;
77402;SDS011;66472;53.046;8.656;2023-03-20T19:42:03;21.83;;;19.93;;
77402;SDS011;66472;53.046;8.656;2023-03-20T19:46:59;24.83;;;22.70;;
77402;SDS011;66472;53.046;8.656;2023-03-20T19:51:55;26.47;;;24.10;;
77402;SDS011;66472;53.046;8.656;2023-03-20T19:56:50;27.03;;;24.60;;
77402;SDS011;66472;53.046;8.656;2023-03-20T20:01:45;29.37;;;26.87;;
77402;SDS011;66472;53.046;8.656;2023-03-20T20:06:40;29.73;;;27.43;;
77402;SDS011;66472;53.046;8.656;2023-03-20T20:11:36;31.03;;;28.37;;
77402;SDS011;66472;53.046;8.656;2023-03-20T20:16:31;31.77;;;28.90;;
77402;SDS011;66472;53.046;8.656;2023-03-20T20:21:26;34.20;;;31.37;;
77402;SDS011;66472;53.046;8.656;2023-03-20T20:26:21;33.88;;;30.88;;
77402;SDS011;66472;53.046;8.656;2023-03-20T20:31:17;39.17;;;35.87;;
77402;SDS011;66472;53.046;8.656;2023-03-20T20:36:12;38.90;;;35.63;;
77402;SDS011;66472;53.046;8.656;2023-03-20T20:41:09;39.33;;;36.20;;
77402;SDS011;66472;53.046;8.656;2023-03-20T20:46:05;39.33;;;36.38;;
77402;SDS011;66472;53.046;8.656;2023-03-20T20:51:00;42.17;;;37.97;;
77402;SDS011;66472;53.046;8.656;2023-03-20T20:55:55;38.58;;;35.05;;
77402;SDS011;66472;53.046;8.656;2023-03-20T21:00:50;44.13;;;40.07;;
77402;SDS011;66472;53.046;8.656;2023-03-20T21:05:47;43.67;;;39.67;;
77402;SDS011;66472;53.046;8.656;2023-03-20T21:10:43;46.95;;;43.22;;
77402;SDS011;66472;53.046;8.656;2023-03-20T21:15:39;45.63;;;41.60;;
77402;SDS011;66472;53.046;8.656;2023-03-20T21:20:34;50.67;;;45.90;;
77402;SDS011;66472;53.046;8.656;2023-03-20T21:25:30;55.13;;;49.20;;
77402;SDS011;66472;53.046;8.656;2023-03-20T21:30:26;51.73;;;46.90;;
77402;SDS011;66472;53.046;8.656;2023-03-20T21:35:21;57.67;;;52.37;;
77402;SDS011;66472;53.046;8.656;2023-03-20T21:40:16;56.33;;;51.50;;
77402;SDS011;66472;53.046;8.656;2023-03-20T21:45:12;58.65;;;53.78;;
77402;SDS011;66472;53.046;8.656;2023-03-20T21:50:07;63.42;;;58.10;;
77402;SDS011;66472;53.046;8.656;2023-03-20T21:55:02;60.57;;;55.77;;
77402;SDS011;66472;53.046;8.656;2023-03-20T21:59:58;69.67;;;64.00;;
77402;SDS011;66472;53.046;8.656;2023-03-20T22:04:53;72.83;;;66.37;;
77402;SDS011;66472;53.046;8.656;2023-03-20T22:09:49;73.67;;;67.47;;
77402;SDS011;66472;53.046;8.656;2023-03-20T22:14:45;77.47;;;71.20;;
77402;SDS011;66472;53.046;8.656;2023-03-20T22:19:40;80.13;;;73.10;;
77402;SDS011;66472;53.046;8.656;2023-03-20T22:24:36;80.13;;;73.43;;
77402;SDS011;66472;53.046;8.656;2023-03-20T22:29:31;81.13;;;74.70;;
77402;SDS011;66472;53.046;8.656;2023-03-20T22:34:26;82.60;;;75.57;;
77402;SDS011;66472;53.046;8.656;2023-03-20T22:39:21;89.32;;;81.57;;
77402;SDS011;66472;53.046;8.656;2023-03-20T22:44:17;84.43;;;77.03;;
77402;SDS011;66472;53.046;8.656;2023-03-20T22:49:12;88.20;;;81.20;;
77402;SDS011;66472;53.046;8.656;2023-03-20T22:54:07;91.13;;;83.27;;
77402;SDS011;66472;53.046;8.656;2023-03-20T22:59:03;88.67;;;81.23;;
77402;SDS011;66472;53.046;8.656;2023-03-20T23:03:58;92.33;;;84.47;;
77402;SDS011;66472;53.046;8.656;2023-03-20T23:08:54;91.00;;;83.77;;
77402;SDS011;66472;53.046;8.656;2023-03-20T23:13:50;95.30;;;87.57;;
77402;SDS011;66472;53.046;8.656;2023-03-20T23:18:46;95.77;;;88.07;;
77402;SDS011;66472;53.046;8.656;2023-03-20T23:23:41;96.72;;;89.00;;
77402;SDS011;66472;53.046;8.656;2023-03-20T23:28:37;102.72;;;94.22;;
77402;SDS011;66472;53.046;8.656;2023-03-20T23:33:32;101.17;;;93.67;;
77402;SDS011;66472;53.046;8.656;2023-03-20T23:38:28;95.87;;;88.30;;
77402;SDS011;66472;53.046;8.656;2023-03-20T23:43:23;92.97;;;85.90;;
77402;SDS011;66472;53.046;8.656;2023-03-20T23:48:19;99.43;;;92.10;;
77402;SDS011;66472;53.046;8.656;2023-03-20T23:53:14;100.77;;;93.03;;
77402;SDS011;66472;53.046;8.656;2023-03-20T23:58:10;100.00;;;92.40;;
